sensor_id;sensor_type;location;lat;lon;timestamp;P1;durP1;ratioP1;P2;durP2;ratioP2
39502;SDS011;26970;49.900;10.774;2022-10-16T00:01:58;5.68;;;2.65;;
39502;SDS011;26970;49.900;10.774;2022-10-16T00:04:24;4.82;;;2.28;;
39502;SDS011;26970;49.900;10.774;2022-10-16T00:06:49;4.25;;;2.30;;
39502;SDS011;26970;49.900;10.774;2022-10-16T00:09:15;6.40;;;2.92;;
39502;SDS011;26970;49.900;10.774;2022-10-16T00:11:40;5.25;;;2.45;;
39502;SDS011;26970;49.900;10.774;2022-10-16T00:14:08;6.72;;;2.50;;
39502;SDS011;26970;49.900;10.774;2022-10-16T00:16:36;5.43;;;2.10;;
39502;SDS011;26970;49.900;10.774;2022-10-16T00:19:02;4.88;;;2.50;;
39502;SDS011;26970;49.900;10.774;2022-10-16T00:21:29;4.15;;;2.38;;
39502;SDS011;26970;49.900;10.774;2022-10-16T00:23:56;3.13;;;2.10;;
39502;SDS011;26970;49.900;10.774;2022-10-16T00:26:30;6.20;;;2.35;;
39502;SDS011;26970;49.900;10.774;2022-10-16T00:28:57;4.97;;;2.30;;
39502;SDS011;26970;49.900;10.774;2022-10-16T00:31:23;6.72;;;2.40;;
39502;SDS011;26970;49.900;10.774;2022-10-16T00:33:49;6.63;;;2.50;;
39502;SDS011;26970;49.900;10.774;2022-10-16T00:36:16;4.43;;;2.30;;
39502;SDS011;26970;49.900;10.774;2022-10-16T00:38:43;6.40;;;2.60;;
39502;SDS011;26970;49.900;10.774;2022-10-16T00:41:13;7.90;;;2.55;;
39502;SDS011;26970;49.900;10.774;2022-10-16T00:43:41;6.90;;;2.30;;
39502;SDS011;26970;49.900;10.774;2022-10-16T00:46:10;6.07;;;2.40;;
39502;SDS011;26970;49.900;10.774;2022-10-16T00:48:45;6.97;;;3.42;;
39502;SDS011;26970;49.900;10.774;2022-10-16T00:51:23;8.50;;;2.50;;
39502;SDS011;26970;49.900;10.774;2022-10-16T00:53:55;6.13;;;2.47;;
39502;SDS011;26970;49.900;10.774;2022-10-16T00:56:21;7.28;;;2.25;;
39502;SDS011;26970;49.900;10.774;2022-10-16T00:58:46;3.85;;;2.13;;
39502;SDS011;26970;49.900;10.774;2022-10-16T01:01:12;4.28;;;2.40;;
39502;SDS011;26970;49.900;10.774;2022-10-16T01:03:38;3.65;;;2.30;;
39502;SDS011;26970;49.900;10.774;2022-10-16T01:06:19;5.63;;;2.10;;
39502;SDS011;26970;49.900;10.774;2022-10-16T01:11:38;3.42;;;2.05;;
39502;SDS011;26970;49.900;10.774;2022-10-16T01:14:20;6.22;;;2.20;;
39502;SDS011;26970;49.900;10.774;2022-10-16T01:16:52;4.15;;;2.20;;
39502;SDS011;26970;49.900;10.774;2022-10-16T01:19:31;4.60;;;2.50;;
39502;SDS011;26970;49.900;10.774;2022-10-16T01:22:09;6.57;;;2.33;;
39502;SDS011;26970;49.900;10.774;2022-10-16T01:24:39;5.28;;;2.53;;
39502;SDS011;26970;49.900;10.774;2022-10-16T01:35:18;4.63;;;2.40;;
39502;SDS011;26970;49.900;10.774;2022-10-16T01:37:50;10.50;;;2.60;;
39502;SDS011;26970;49.900;10.774;2022-10-16T01:40:23;8.48;;;2.42;;
39502;SDS011;26970;49.900;10.774;2022-10-16T01:45:51;8.20;;;2.83;;
39502;SDS011;26970;49.900;10.774;2022-10-16T01:48:18;4.88;;;3.00;;
39502;SDS011;26970;49.900;10.774;2022-10-16T01:50:50;4.00;;;2.33;;
39502;SDS011;26970;49.900;10.774;2022-10-16T01:53:24;6.85;;;2.80;;
39502;SDS011;26970;49.900;10.774;2022-10-16T01:55:51;4.93;;;2.53;;
39502;SDS011;26970;49.900;10.774;2022-10-16T01:58:19;9.38;;;2.50;;
39502;SDS011;26970;49.900;10.774;2022-10-16T02:00:46;3.65;;;2.45;;
39502;SDS011;26970;49.900;10.774;2022-10-16T02:03:13;5.75;;;2.45;;
39502;SDS011;26970;49.900;10.774;2022-10-16T02:05:46;5.68;;;2.72;;
39502;SDS011;26970;49.900;10.774;2022-10-16T02:08:15;4.78;;;2.30;;
39502;SDS011;26970;49.900;10.774;2022-10-16T02:10:41;6.60;;;2.40;;
39502;SDS011;26970;49.900;10.774;2022-10-16T02:13:15;5.13;;;2.47;;
39502;SDS011;26970;49.900;10.774;2022-10-16T02:15:48;4.75;;;2.40;;
39502;SDS011;26970;49.900;10.774;2022-10-16T02:18:14;5.65;;;2.35;;
39502;SDS011;26970;49.900;10.774;2022-10-16T02:20:43;5.47;;;2.58;;
39502;SDS011;26970;49.900;10.774;2022-10-16T02:23:19;5.35;;;2.28;;
39502;SDS011;26970;49.900;10.774;2022-10-16T02:25:59;7.22;;;2.60;;
39502;SDS011;26970;49.900;10.774;2022-10-16T02:28:33;5.07;;;2.58;;
39502;SDS011;26970;49.900;10.774;2022-10-16T02:31:11;5.75;;;2.53;;
39502;SDS011;26970;49.900;10.774;2022-10-16T02:33:40;5.63;;;2.70;;
39502;SDS011;26970;49.900;10.774;2022-10-16T02:36:08;5.78;;;2.75;;
39502;SDS011;26970;49.900;10.774;2022-10-16T02:38:35;6.53;;;2.47;;
39502;SDS011;26970;49.900;10.774;2022-10-16T02:41:01;4.03;;;2.78;;
39502;SDS011;26970;49.900;10.774;2022-10-16T02:43:28;9.57;;;3.75;;
39502;SDS011;26970;49.900;10.774;2022-10-16T02:45:53;6.90;;;2.80;;
39502;SDS011;26970;49.900;10.774;2022-10-16T02:48:19;8.88;;;2.78;;
39502;SDS011;26970;49.900;10.774;2022-10-16T02:50:44;8.05;;;2.67;;
39502;SDS011;26970;49.900;10.774;2022-10-16T02:53:10;4.05;;;2.60;;
39502;SDS011;26970;49.900;10.774;2022-10-16T02:55:35;5.00;;;2.80;;
39502;SDS011;26970;49.900;10.774;2022-10-16T02:58:01;12.75;;;2.97;;
39502;SDS011;26970;49.900;10.774;2022-10-16T03:00:27;6.35;;;3.08;;
39502;SDS011;26970;49.900;10.774;2022-10-16T03:02:53;4.60;;;2.67;;
39502;SDS011;26970;49.900;10.774;2022-10-16T03:05:19;5.82;;;2.60;;
39502;SDS011;26970;49.900;10.774;2022-10-16T03:07:44;6.22;;;2.92;;
39502;SDS011;26970;49.900;10.774;2022-10-16T03:10:10;6.70;;;2.95;;
39502;SDS011;26970;49.900;10.774;2022-10-16T03:12:35;9.75;;;2.92;;
39502;SDS011;26970;49.900;10.774;2022-10-16T03:15:01;6.30;;;2.70;;
39502;SDS011;26970;49.900;10.774;2022-10-16T03:17:27;8.93;;;2.90;;
39502;SDS011;26970;49.900;10.774;2022-10-16T03:19:53;6.05;;;2.70;;
39502;SDS011;26970;49.900;10.774;2022-10-16T03:22:18;7.95;;;2.88;;
39502;SDS011;26970;49.900;10.774;2022-10-16T03:24:44;6.63;;;2.90;;
39502;SDS011;26970;49.900;10.774;2022-10-16T03:27:10;5.70;;;3.22;;
39502;SDS011;26970;49.900;10.774;2022-10-16T03:29:35;6.57;;;2.28;;
39502;SDS011;26970;49.900;10.774;2022-10-16T03:32:01;10.35;;;2.70;;
39502;SDS011;26970;49.900;10.774;2022-10-16T03:34:27;7.07;;;2.40;;
39502;SDS011;26970;49.900;10.774;2022-10-16T03:36:53;7.00;;;2.20;;
39502;SDS011;26970;49.900;10.774;2022-10-16T03:39:18;6.45;;;2.42;;
39502;SDS011;26970;49.900;10.774;2022-10-16T03:41:44;3.20;;;2.15;;
39502;SDS011;26970;49.900;10.774;2022-10-16T03:44:11;5.15;;;2.10;;
39502;SDS011;26970;49.900;10.774;2022-10-16T03:46:37;3.45;;;2.10;;
39502;SDS011;26970;49.900;10.774;2022-10-16T03:49:02;5.20;;;2.30;;
39502;SDS011;26970;49.900;10.774;2022-10-16T03:51:28;6.00;;;2.00;;
39502;SDS011;26970;49.900;10.774;2022-10-16T03:53:54;5.55;;;2.40;;
39502;SDS011;26970;49.900;10.774;2022-10-16T03:56:19;3.58;;;2.22;;
39502;SDS011;26970;49.900;10.774;2022-10-16T03:58:45;4.13;;;2.10;;
39502;SDS011;26970;49.900;10.774;2022-10-16T04:01:10;4.90;;;2.45;;
39502;SDS011;26970;49.900;10.774;2022-10-16T04:03:36;7.72;;;2.60;;
39502;SDS011;26970;49.900;10.774;2022-10-16T04:06:01;5.25;;;2.22;;
39502;SDS011;26970;49.900;10.774;2022-10-16T04:08:27;4.63;;;2.40;;
39502;SDS011;26970;49.900;10.774;2022-10-16T04:10:52;5.00;;;2.45;;
39502;SDS011;26970;49.900;10.774;2022-10-16T04:13:18;4.30;;;2.20;;
39502;SDS011;26970;49.900;10.774;2022-10-16T04:15:44;3.42;;;2.10;;
39502;SDS011;26970;49.900;10.774;2022-10-16T04:18:10;7.10;;;2.53;;
39502;SDS011;26970;49.900;10.774;2022-10-16T04:20:36;3.70;;;2.42;;
39502;SDS011;26970;49.900;10.774;2022-10-16T04:23:02;4.35;;;2.05;;
39502;SDS011;26970;49.900;10.774;2022-10-16T04:25:28;3.35;;;2.05;;
39502;SDS011;26970;49.900;10.774;2022-10-16T04:27:53;5.43;;;2.10;;
39502;SDS011;26970;49.900;10.774;2022-10-16T04:30:20;6.38;;;2.40;;
39502;SDS011;26970;49.900;10.774;2022-10-16T04:32:49;3.00;;;2.50;;
39502;SDS011;26970;49.900;10.774;2022-10-16T04:35:17;6.70;;;2.03;;
39502;SDS011;26970;49.900;10.774;2022-10-16T04:37:43;4.82;;;2.13;;
39502;SDS011;26970;49.900;10.774;2022-10-16T04:40:09;4.60;;;2.08;;
39502;SDS011;26970;49.900;10.774;2022-10-16T04:42:34;4.65;;;2.30;;
39502;SDS011;26970;49.900;10.774;2022-10-16T04:45:00;3.20;;;2.10;;
39502;SDS011;26970;49.900;10.774;2022-10-16T04:47:25;3.33;;;2.17;;
39502;SDS011;26970;49.900;10.774;2022-10-16T04:49:51;5.25;;;2.15;;
39502;SDS011;26970;49.900;10.774;2022-10-16T04:52:16;4.88;;;2.25;;
39502;SDS011;26970;49.900;10.774;2022-10-16T04:54:43;5.05;;;2.15;;
39502;SDS011;26970;49.900;10.774;2022-10-16T04:57:10;4.20;;;1.90;;
39502;SDS011;26970;49.900;10.774;2022-10-16T04:59:35;2.72;;;2.00;;
39502;SDS011;26970;49.900;10.774;2022-10-16T05:02:01;3.72;;;2.10;;
39502;SDS011;26970;49.900;10.774;2022-10-16T05:04:27;4.03;;;2.10;;
39502;SDS011;26970;49.900;10.774;2022-10-16T05:06:52;8.05;;;2.53;;
39502;SDS011;26970;49.900;10.774;2022-10-16T05:09:18;6.07;;;2.30;;
39502;SDS011;26970;49.900;10.774;2022-10-16T05:11:43;6.30;;;2.30;;
39502;SDS011;26970;49.900;10.774;2022-10-16T05:14:09;6.32;;;2.30;;
39502;SDS011;26970;49.900;10.774;2022-10-16T05:16:34;4.00;;;2.22;;
39502;SDS011;26970;49.900;10.774;2022-10-16T05:19:00;4.20;;;2.30;;
39502;SDS011;26970;49.900;10.774;2022-10-16T05:21:25;10.55;;;2.50;;
39502;SDS011;26970;49.900;10.774;2022-10-16T05:23:52;3.72;;;2.10;;
39502;SDS011;26970;49.900;10.774;2022-10-16T05:26:19;3.60;;;2.53;;
39502;SDS011;26970;49.900;10.774;2022-10-16T05:28:45;4.32;;;2.03;;
39502;SDS011;26970;49.900;10.774;2022-10-16T05:31:10;4.80;;;2.10;;
39502;SDS011;26970;49.900;10.774;2022-10-16T05:33:36;9.15;;;2.50;;
39502;SDS011;26970;49.900;10.774;2022-10-16T05:36:05;4.78;;;2.13;;
39502;SDS011;26970;49.900;10.774;2022-10-16T05:38:32;7.88;;;2.85;;
39502;SDS011;26970;49.900;10.774;2022-10-16T05:40:58;4.95;;;2.72;;
39502;SDS011;26970;49.900;10.774;2022-10-16T05:43:24;5.20;;;2.45;;
39502;SDS011;26970;49.900;10.774;2022-10-16T05:45:55;5.03;;;2.30;;
39502;SDS011;26970;49.900;10.774;2022-10-16T05:48:21;5.68;;;2.22;;
39502;SDS011;26970;49.900;10.774;2022-10-16T05:50:47;6.20;;;2.35;;
39502;SDS011;26970;49.900;10.774;2022-10-16T05:53:13;5.57;;;2.25;;
39502;SDS011;26970;49.900;10.774;2022-10-16T05:55:38;4.82;;;2.38;;
39502;SDS011;26970;49.900;10.774;2022-10-16T05:58:04;5.65;;;2.17;;
39502;SDS011;26970;49.900;10.774;2022-10-16T06:00:29;8.50;;;2.63;;
39502;SDS011;26970;49.900;10.774;2022-10-16T06:02:55;6.43;;;2.58;;
39502;SDS011;26970;49.900;10.774;2022-10-16T06:05:20;3.75;;;2.42;;
39502;SDS011;26970;49.900;10.774;2022-10-16T06:07:46;6.40;;;2.30;;
39502;SDS011;26970;49.900;10.774;2022-10-16T06:10:11;5.28;;;2.15;;
39502;SDS011;26970;49.900;10.774;2022-10-16T06:12:37;4.25;;;2.47;;
39502;SDS011;26970;49.900;10.774;2022-10-16T06:15:02;4.80;;;2.70;;
39502;SDS011;26970;49.900;10.774;2022-10-16T06:17:28;5.43;;;2.72;;
39502;SDS011;26970;49.900;10.774;2022-10-16T06:19:54;6.15;;;2.40;;
39502;SDS011;26970;49.900;10.774;2022-10-16T06:22:19;5.78;;;2.45;;
39502;SDS011;26970;49.900;10.774;2022-10-16T06:24:45;6.82;;;2.50;;
39502;SDS011;26970;49.900;10.774;2022-10-16T06:27:11;6.05;;;2.78;;
39502;SDS011;26970;49.900;10.774;2022-10-16T06:29:36;6.43;;;2.67;;
39502;SDS011;26970;49.900;10.774;2022-10-16T06:32:02;6.00;;;2.90;;
39502;SDS011;26970;49.900;10.774;2022-10-16T06:34:28;5.05;;;2.63;;
39502;SDS011;26970;49.900;10.774;2022-10-16T06:36:53;6.75;;;2.85;;
39502;SDS011;26970;49.900;10.774;2022-10-16T06:39:19;4.78;;;3.08;;
39502;SDS011;26970;49.900;10.774;2022-10-16T06:41:44;5.70;;;2.83;;
39502;SDS011;26970;49.900;10.774;2022-10-16T06:44:10;9.82;;;2.75;;
39502;SDS011;26970;49.900;10.774;2022-10-16T06:46:35;10.40;;;2.60;;
39502;SDS011;26970;49.900;10.774;2022-10-16T06:49:01;5.78;;;2.60;;
39502;SDS011;26970;49.900;10.774;2022-10-16T06:51:27;4.43;;;2.35;;
39502;SDS011;26970;49.900;10.774;2022-10-16T06:53:53;5.15;;;2.42;;
39502;SDS011;26970;49.900;10.774;2022-10-16T06:56:22;4.82;;;2.60;;
39502;SDS011;26970;49.900;10.774;2022-10-16T06:58:49;8.45;;;2.72;;
39502;SDS011;26970;49.900;10.774;2022-10-16T07:01:17;7.25;;;3.08;;
39502;SDS011;26970;49.900;10.774;2022-10-16T07:03:44;3.80;;;2.50;;
39502;SDS011;26970;49.900;10.774;2022-10-16T07:06:11;7.15;;;2.88;;
39502;SDS011;26970;49.900;10.774;2022-10-16T07:08:39;4.97;;;2.47;;
39502;SDS011;26970;49.900;10.774;2022-10-16T07:11:07;7.07;;;2.60;;
39502;SDS011;26970;49.900;10.774;2022-10-16T07:13:36;7.57;;;2.75;;
39502;SDS011;26970;49.900;10.774;2022-10-16T07:16:04;6.30;;;2.53;;
39502;SDS011;26970;49.900;10.774;2022-10-16T07:18:33;4.60;;;2.67;;
39502;SDS011;26970;49.900;10.774;2022-10-16T07:21:06;7.80;;;2.60;;
39502;SDS011;26970;49.900;10.774;2022-10-16T07:23:33;6.20;;;2.40;;
39502;SDS011;26970;49.900;10.774;2022-10-16T07:25:59;10.02;;;3.20;;
39502;SDS011;26970;49.900;10.774;2022-10-16T07:28:24;4.57;;;2.50;;
39502;SDS011;26970;49.900;10.774;2022-10-16T07:30:52;4.53;;;2.70;;
39502;SDS011;26970;49.900;10.774;2022-10-16T07:33:18;4.47;;;2.90;;
39502;SDS011;26970;49.900;10.774;2022-10-16T07:35:48;5.85;;;2.70;;
39502;SDS011;26970;49.900;10.774;2022-10-16T07:38:17;3.92;;;2.45;;
39502;SDS011;26970;49.900;10.774;2022-10-16T07:40:43;5.80;;;2.60;;
39502;SDS011;26970;49.900;10.774;2022-10-16T07:43:09;6.57;;;2.67;;
39502;SDS011;26970;49.900;10.774;2022-10-16T07:45:35;7.50;;;2.58;;
39502;SDS011;26970;49.900;10.774;2022-10-16T07:48:00;6.30;;;2.75;;
39502;SDS011;26970;49.900;10.774;2022-10-16T07:50:26;4.18;;;2.50;;
39502;SDS011;26970;49.900;10.774;2022-10-16T07:52:51;4.60;;;2.50;;
39502;SDS011;26970;49.900;10.774;2022-10-16T07:55:17;5.72;;;2.80;;
39502;SDS011;26970;49.900;10.774;2022-10-16T07:57:43;4.90;;;2.80;;
39502;SDS011;26970;49.900;10.774;2022-10-16T08:00:08;6.72;;;2.58;;
39502;SDS011;26970;49.900;10.774;2022-10-16T08:02:39;5.68;;;2.38;;
39502;SDS011;26970;49.900;10.774;2022-10-16T08:05:05;8.13;;;2.78;;
39502;SDS011;26970;49.900;10.774;2022-10-16T08:07:31;8.02;;;2.92;;
39502;SDS011;26970;49.900;10.774;2022-10-16T08:09:57;6.95;;;3.50;;
39502;SDS011;26970;49.900;10.774;2022-10-16T08:12:23;6.20;;;2.70;;
39502;SDS011;26970;49.900;10.774;2022-10-16T08:14:49;5.32;;;2.80;;
39502;SDS011;26970;49.900;10.774;2022-10-16T08:17:15;5.25;;;2.78;;
39502;SDS011;26970;49.900;10.774;2022-10-16T08:19:43;5.45;;;2.38;;
39502;SDS011;26970;49.900;10.774;2022-10-16T08:22:10;8.45;;;2.83;;
39502;SDS011;26970;49.900;10.774;2022-10-16T08:24:35;5.25;;;2.63;;
39502;SDS011;26970;49.900;10.774;2022-10-16T08:27:04;6.05;;;2.50;;
39502;SDS011;26970;49.900;10.774;2022-10-16T08:29:29;4.68;;;2.58;;
39502;SDS011;26970;49.900;10.774;2022-10-16T08:32:00;4.18;;;2.40;;
39502;SDS011;26970;49.900;10.774;2022-10-16T08:34:25;6.40;;;2.55;;
39502;SDS011;26970;49.900;10.774;2022-10-16T08:36:56;4.78;;;2.28;;
39502;SDS011;26970;49.900;10.774;2022-10-16T08:39:22;5.07;;;2.17;;
39502;SDS011;26970;49.900;10.774;2022-10-16T08:41:53;7.95;;;2.50;;
39502;SDS011;26970;49.900;10.774;2022-10-16T08:49:57;5.47;;;2.22;;
39502;SDS011;26970;49.900;10.774;2022-10-16T08:52:26;8.60;;;2.80;;
39502;SDS011;26970;49.900;10.774;2022-10-16T08:54:55;3.22;;;2.25;;
39502;SDS011;26970;49.900;10.774;2022-10-16T08:57:27;6.60;;;2.95;;
39502;SDS011;26970;49.900;10.774;2022-10-16T09:00:15;8.02;;;2.70;;
39502;SDS011;26970;49.900;10.774;2022-10-16T09:02:45;3.78;;;2.60;;
39502;SDS011;26970;49.900;10.774;2022-10-16T09:11:21;4.68;;;2.60;;
39502;SDS011;26970;49.900;10.774;2022-10-16T09:13:50;5.25;;;2.65;;
39502;SDS011;26970;49.900;10.774;2022-10-16T09:16:27;7.75;;;2.72;;
39502;SDS011;26970;49.900;10.774;2022-10-16T09:19:16;6.65;;;3.65;;
39502;SDS011;26970;49.900;10.774;2022-10-16T09:21:48;7.25;;;3.53;;
39502;SDS011;26970;49.900;10.774;2022-10-16T09:24:16;10.80;;;5.38;;
39502;SDS011;26970;49.900;10.774;2022-10-16T09:26:43;8.10;;;5.47;;
39502;SDS011;26970;49.900;10.774;2022-10-16T09:29:13;11.82;;;6.13;;
39502;SDS011;26970;49.900;10.774;2022-10-16T09:31:40;11.68;;;9.98;;
39502;SDS011;26970;49.900;10.774;2022-10-16T09:34:08;14.73;;;12.57;;
39502;SDS011;26970;49.900;10.774;2022-10-16T09:36:45;7.28;;;4.50;;
39502;SDS011;26970;49.900;10.774;2022-10-16T09:39:11;7.22;;;4.53;;
39502;SDS011;26970;49.900;10.774;2022-10-16T09:41:38;8.93;;;3.83;;
39502;SDS011;26970;49.900;10.774;2022-10-16T09:44:15;9.45;;;5.90;;
39502;SDS011;26970;49.900;10.774;2022-10-16T09:47:04;12.73;;;8.35;;
39502;SDS011;26970;49.900;10.774;2022-10-16T09:49:31;16.25;;;13.48;;
39502;SDS011;26970;49.900;10.774;2022-10-16T09:52:12;9.88;;;4.72;;
39502;SDS011;26970;49.900;10.774;2022-10-16T09:54:52;7.68;;;4.85;;
39502;SDS011;26970;49.900;10.774;2022-10-16T09:57:23;10.10;;;5.22;;
39502;SDS011;26970;49.900;10.774;2022-10-16T09:59:51;10.95;;;9.02;;
39502;SDS011;26970;49.900;10.774;2022-10-16T10:02:30;8.57;;;4.95;;
39502;SDS011;26970;49.900;10.774;2022-10-16T10:04:59;8.27;;;4.70;;
39502;SDS011;26970;49.900;10.774;2022-10-16T10:07:30;6.30;;;3.70;;
39502;SDS011;26970;49.900;10.774;2022-10-16T10:09:58;5.68;;;2.90;;
39502;SDS011;26970;49.900;10.774;2022-10-16T10:12:29;7.95;;;2.90;;
39502;SDS011;26970;49.900;10.774;2022-10-16T10:15:04;5.47;;;2.92;;
39502;SDS011;26970;49.900;10.774;2022-10-16T10:17:44;8.93;;;3.17;;
39502;SDS011;26970;49.900;10.774;2022-10-16T10:20:30;4.47;;;2.63;;
39502;SDS011;26970;49.900;10.774;2022-10-16T10:23:01;7.07;;;2.90;;
39502;SDS011;26970;49.900;10.774;2022-10-16T10:31:25;5.03;;;2.92;;
39502;SDS011;26970;49.900;10.774;2022-10-16T10:34:11;7.20;;;3.80;;
39502;SDS011;26970;49.900;10.774;2022-10-16T10:39:49;5.85;;;3.25;;
39502;SDS011;26970;49.900;10.774;2022-10-16T10:42:36;6.95;;;2.95;;
39502;SDS011;26970;49.900;10.774;2022-10-16T11:01:14;4.40;;;2.95;;
39502;SDS011;26970;49.900;10.774;2022-10-16T11:06:33;5.47;;;2.90;;
39502;SDS011;26970;49.900;10.774;2022-10-16T11:09:13;5.18;;;2.90;;
39502;SDS011;26970;49.900;10.774;2022-10-16T11:11:45;8.30;;;2.83;;
39502;SDS011;26970;49.900;10.774;2022-10-16T11:14:58;4.90;;;2.63;;
39502;SDS011;26970;49.900;10.774;2022-10-16T11:17:12;6.03;;;2.60;;
39502;SDS011;26970;49.900;10.774;2022-10-16T11:19:50;6.10;;;3.10;;
39502;SDS011;26970;49.900;10.774;2022-10-16T11:22:25;20.20;;;4.03;;
39502;SDS011;26970;49.900;10.774;2022-10-16T11:27:40;10.27;;;3.50;;
39502;SDS011;26970;49.900;10.774;2022-10-16T11:30:27;7.75;;;2.85;;
39502;SDS011;26970;49.900;10.774;2022-10-16T11:40:53;10.55;;;4.40;;
39502;SDS011;26970;49.900;10.774;2022-10-16T11:43:27;12.88;;;4.18;;
39502;SDS011;26970;49.900;10.774;2022-10-16T11:46:10;6.95;;;4.38;;
39502;SDS011;26970;49.900;10.774;2022-10-16T11:48:43;6.90;;;3.60;;
39502;SDS011;26970;49.900;10.774;2022-10-16T11:54:14;8.38;;;4.20;;
39502;SDS011;26970;49.900;10.774;2022-10-16T11:57:01;7.28;;;3.92;;
39502;SDS011;26970;49.900;10.774;2022-10-16T11:59:39;9.93;;;4.30;;
39502;SDS011;26970;49.900;10.774;2022-10-16T12:05:09;6.45;;;2.80;;
39502;SDS011;26970;49.900;10.774;2022-10-16T12:07:49;7.00;;;3.17;;
39502;SDS011;26970;49.900;10.774;2022-10-16T12:10:23;6.15;;;3.28;;
39502;SDS011;26970;49.900;10.774;2022-10-16T12:12:52;6.15;;;3.20;;
39502;SDS011;26970;49.900;10.774;2022-10-16T12:15:25;5.38;;;2.90;;
39502;SDS011;26970;49.900;10.774;2022-10-16T12:17:52;5.10;;;2.60;;
39502;SDS011;26970;49.900;10.774;2022-10-16T12:20:20;3.72;;;2.65;;
39502;SDS011;26970;49.900;10.774;2022-10-16T12:23:06;4.00;;;2.65;;
39502;SDS011;26970;49.900;10.774;2022-10-16T12:25:43;4.60;;;2.92;;
39502;SDS011;26970;49.900;10.774;2022-10-16T12:28:19;5.25;;;3.28;;
39502;SDS011;26970;49.900;10.774;2022-10-16T12:30:54;3.95;;;2.33;;
39502;SDS011;26970;49.900;10.774;2022-10-16T12:33:24;6.43;;;2.70;;
39502;SDS011;26970;49.900;10.774;2022-10-16T12:35:54;5.13;;;2.50;;
39502;SDS011;26970;49.900;10.774;2022-10-16T12:38:25;3.45;;;2.10;;
39502;SDS011;26970;49.900;10.774;2022-10-16T12:48:46;4.55;;;2.20;;
39502;SDS011;26970;49.900;10.774;2022-10-16T12:51:23;5.80;;;2.60;;
39502;SDS011;26970;49.900;10.774;2022-10-16T12:53:59;3.65;;;2.28;;
39502;SDS011;26970;49.900;10.774;2022-10-16T12:59:32;9.68;;;2.30;;
39502;SDS011;26970;49.900;10.774;2022-10-16T13:02:06;5.43;;;2.28;;
39502;SDS011;26970;49.900;10.774;2022-10-16T13:04:47;5.55;;;2.40;;
39502;SDS011;26970;49.900;10.774;2022-10-16T13:07:40;4.70;;;2.25;;
39502;SDS011;26970;49.900;10.774;2022-10-16T13:13:29;3.78;;;2.38;;
39502;SDS011;26970;49.900;10.774;2022-10-16T13:16:35;6.13;;;2.30;;
39502;SDS011;26970;49.900;10.774;2022-10-16T13:19:23;7.35;;;2.67;;
39502;SDS011;26970;49.900;10.774;2022-10-16T13:25:12;5.43;;;2.60;;
39502;SDS011;26970;49.900;10.774;2022-10-16T13:27:49;7.32;;;2.50;;
39502;SDS011;26970;49.900;10.774;2022-10-16T13:30:28;6.60;;;2.80;;
39502;SDS011;26970;49.900;10.774;2022-10-16T13:33:00;6.47;;;2.50;;
39502;SDS011;26970;49.900;10.774;2022-10-16T13:35:30;10.07;;;2.60;;
39502;SDS011;26970;49.900;10.774;2022-10-16T13:38:14;6.30;;;2.60;;
39502;SDS011;26970;49.900;10.774;2022-10-16T13:40:48;5.63;;;2.50;;
39502;SDS011;26970;49.900;10.774;2022-10-16T13:43:14;6.65;;;2.70;;
39502;SDS011;26970;49.900;10.774;2022-10-16T13:45:40;4.13;;;2.83;;
39502;SDS011;26970;49.900;10.774;2022-10-16T13:48:08;7.03;;;2.45;;
39502;SDS011;26970;49.900;10.774;2022-10-16T13:50:37;6.20;;;2.70;;
39502;SDS011;26970;49.900;10.774;2022-10-16T13:53:10;4.18;;;2.20;;
39502;SDS011;26970;49.900;10.774;2022-10-16T13:55:38;4.57;;;2.47;;
39502;SDS011;26970;49.900;10.774;2022-10-16T13:58:08;5.65;;;2.50;;
39502;SDS011;26970;49.900;10.774;2022-10-16T14:00:37;7.10;;;2.53;;
39502;SDS011;26970;49.900;10.774;2022-10-16T14:03:04;7.80;;;2.70;;
39502;SDS011;26970;49.900;10.774;2022-10-16T14:05:32;6.70;;;2.83;;
39502;SDS011;26970;49.900;10.774;2022-10-16T14:07:58;5.60;;;3.10;;
39502;SDS011;26970;49.900;10.774;2022-10-16T14:10:28;5.35;;;2.67;;
39502;SDS011;26970;49.900;10.774;2022-10-16T14:12:59;5.43;;;2.40;;
39502;SDS011;26970;49.900;10.774;2022-10-16T14:15:30;4.75;;;2.67;;
39502;SDS011;26970;49.900;10.774;2022-10-16T14:17:58;4.45;;;2.50;;
39502;SDS011;26970;49.900;10.774;2022-10-16T14:20:24;4.05;;;2.40;;
39502;SDS011;26970;49.900;10.774;2022-10-16T14:22:59;7.28;;;2.65;;
39502;SDS011;26970;49.900;10.774;2022-10-16T14:25:28;5.03;;;2.67;;
39502;SDS011;26970;49.900;10.774;2022-10-16T14:28:14;5.53;;;2.58;;
39502;SDS011;26970;49.900;10.774;2022-10-16T14:30:55;5.13;;;2.13;;
39502;SDS011;26970;49.900;10.774;2022-10-16T14:36:27;3.45;;;2.30;;
39502;SDS011;26970;49.900;10.774;2022-10-16T14:41:28;7.75;;;2.10;;
39502;SDS011;26970;49.900;10.774;2022-10-16T14:44:02;5.47;;;2.23;;
39502;SDS011;26970;49.900;10.774;2022-10-16T14:46:35;7.05;;;2.35;;
39502;SDS011;26970;49.900;10.774;2022-10-16T14:51:39;7.30;;;2.10;;
39502;SDS011;26970;49.900;10.774;2022-10-16T14:54:09;5.60;;;2.55;;
39502;SDS011;26970;49.900;10.774;2022-10-16T14:59:27;6.10;;;2.75;;
39502;SDS011;26970;49.900;10.774;2022-10-16T15:01:55;7.00;;;2.60;;
39502;SDS011;26970;49.900;10.774;2022-10-16T15:04:21;6.28;;;2.47;;
39502;SDS011;26970;49.900;10.774;2022-10-16T15:06:47;4.45;;;2.47;;
39502;SDS011;26970;49.900;10.774;2022-10-16T15:09:12;5.47;;;2.30;;
39502;SDS011;26970;49.900;10.774;2022-10-16T15:11:38;5.35;;;2.35;;
39502;SDS011;26970;49.900;10.774;2022-10-16T15:14:04;6.22;;;2.40;;
39502;SDS011;26970;49.900;10.774;2022-10-16T15:16:30;5.05;;;2.55;;
39502;SDS011;26970;49.900;10.774;2022-10-16T15:18:56;6.05;;;2.45;;
39502;SDS011;26970;49.900;10.774;2022-10-16T15:21:27;4.20;;;2.60;;
39502;SDS011;26970;49.900;10.774;2022-10-16T15:23:55;6.03;;;2.47;;
39502;SDS011;26970;49.900;10.774;2022-10-16T15:26:22;5.03;;;2.67;;
39502;SDS011;26970;49.900;10.774;2022-10-16T15:28:49;9.95;;;2.88;;
39502;SDS011;26970;49.900;10.774;2022-10-16T15:31:15;6.22;;;2.45;;
39502;SDS011;26970;49.900;10.774;2022-10-16T15:33:40;4.28;;;2.40;;
39502;SDS011;26970;49.900;10.774;2022-10-16T15:36:06;3.40;;;2.50;;
39502;SDS011;26970;49.900;10.774;2022-10-16T15:38:32;4.15;;;2.38;;
39502;SDS011;26970;49.900;10.774;2022-10-16T15:40:57;4.50;;;2.30;;
39502;SDS011;26970;49.900;10.774;2022-10-16T15:43:23;7.60;;;2.95;;
39502;SDS011;26970;49.900;10.774;2022-10-16T15:46:02;4.75;;;2.53;;
39502;SDS011;26970;49.900;10.774;2022-10-16T15:48:31;4.75;;;2.30;;
39502;SDS011;26970;49.900;10.774;2022-10-16T15:50:57;4.95;;;2.47;;
39502;SDS011;26970;49.900;10.774;2022-10-16T15:53:24;5.03;;;2.67;;
39502;SDS011;26970;49.900;10.774;2022-10-16T15:55:50;6.93;;;2.72;;
39502;SDS011;26970;49.900;10.774;2022-10-16T15:58:15;4.35;;;2.35;;
39502;SDS011;26970;49.900;10.774;2022-10-16T16:00:41;6.85;;;2.50;;
39502;SDS011;26970;49.900;10.774;2022-10-16T16:03:07;3.78;;;2.53;;
39502;SDS011;26970;49.900;10.774;2022-10-16T16:05:32;8.48;;;2.60;;
39502;SDS011;26970;49.900;10.774;2022-10-16T16:08:00;5.32;;;2.60;;
39502;SDS011;26970;49.900;10.774;2022-10-16T16:10:25;4.72;;;2.42;;
39502;SDS011;26970;49.900;10.774;2022-10-16T16:12:51;4.63;;;2.50;;
39502;SDS011;26970;49.900;10.774;2022-10-16T16:15:18;4.85;;;2.63;;
39502;SDS011;26970;49.900;10.774;2022-10-16T16:17:45;4.25;;;2.60;;
39502;SDS011;26970;49.900;10.774;2022-10-16T16:20:11;4.50;;;2.47;;
39502;SDS011;26970;49.900;10.774;2022-10-16T16:22:36;5.07;;;2.28;;
39502;SDS011;26970;49.900;10.774;2022-10-16T16:25:02;4.90;;;2.40;;